sensor_id;sensor_type;location;lat;lon;timestamp;temperature;humidity
19654;DHT22;9975;48.046;7.804;2022-09-06T10:28:36;25.20;99.90
19654;DHT22;9975;48.046;7.804;2022-09-06T10:37:14;25.10;99.90
19654;DHT22;9975;48.046;7.804;2022-09-06T10:40:09;25.10;99.90
19654;DHT22;9975;48.046;7.804;2022-09-06T10:42:49;25.00;99.90
19654;DHT22;9975;48.046;7.804;2022-09-06T10:48:25;25.10;99.90
19654;DHT22;9975;48.046;7.804;2022-09-06T10:53:46;25.20;99.90
19654;DHT22;9975;48.046;7.804;2022-09-06T10:56:46;25.20;99.90
19654;DHT22;9975;48.046;7.804;2022-09-06T11:02:22;25.00;99.90
19654;DHT22;9975;48.046;7.804;2022-09-06T11:04:51;24.90;99.90
19654;DHT22;9975;48.046;7.804;2022-09-06T11:09:54;24.90;99.90
19654;DHT22;9975;48.046;7.804;2022-09-06T11:15:04;25.10;99.90
19654;DHT22;9975;48.046;7.804;2022-09-06T11:20:37;25.30;99.90
19654;DHT22;9975;48.046;7.804;2022-09-06T11:26:33;25.80;99.90
19654;DHT22;9975;48.046;7.804;2022-09-06T11:29:07;26.20;99.90
19654;DHT22;9975;48.046;7.804;2022-09-06T11:31:57;26.30;99.90
19654;DHT22;9975;48.046;7.804;2022-09-06T11:34:28;26.00;99.90
19654;DHT22;9975;48.046;7.804;2022-09-06T11:36:55;25.90;99.90
19654;DHT22;9975;48.046;7.804;2022-09-06T11:39:34;26.00;99.90
19654;DHT22;9975;48.046;7.804;2022-09-06T11:42:01;26.10;99.90
19654;DHT22;9975;48.046;7.804;2022-09-06T11:47:37;26.20;99.90
19654;DHT22;9975;48.046;7.804;2022-09-06T11:50:22;26.00;99.90
19654;DHT22;9975;48.046;7.804;2022-09-06T11:55:36;25.80;99.90
19654;DHT22;9975;48.046;7.804;2022-09-06T11:58:09;25.70;99.90
19654;DHT22;9975;48.046;7.804;2022-09-06T12:00:37;25.70;99.90
19654;DHT22;9975;48.046;7.804;2022-09-06T12:03:07;25.80;99.90
19654;DHT22;9975;48.046;7.804;2022-09-06T12:08:37;25.80;99.90
19654;DHT22;9975;48.046;7.804;2022-09-06T12:11:05;26.00;99.90
19654;DHT22;9975;48.046;7.804;2022-09-06T12:13:56;25.90;99.90
19654;DHT22;9975;48.046;7.804;2022-09-06T12:17:26;25.90;99.90
19654;DHT22;9975;48.046;7.804;2022-09-06T12:19:50;25.80;99.90
19654;DHT22;9975;48.046;7.804;2022-09-06T12:24:54;26.10;99.90
19654;DHT22;9975;48.046;7.804;2022-09-06T12:27:21;26.10;99.90
19654;DHT22;9975;48.046;7.804;2022-09-06T12:32:49;26.10;99.90
19654;DHT22;9975;48.046;7.804;2022-09-06T12:35:26;26.10;99.90
19654;DHT22;9975;48.046;7.804;2022-09-06T12:40:22;26.20;99.90
19654;DHT22;9975;48.046;7.804;2022-09-06T12:42:49;26.10;99.90
19654;DHT22;9975;48.046;7.804;2022-09-06T12:45:17;26.30;99.90
19654;DHT22;9975;48.046;7.804;2022-09-06T12:47:43;26.40;99.90
19654;DHT22;9975;48.046;7.804;2022-09-06T12:50:18;26.60;99.80
19654;DHT22;9975;48.046;7.804;2022-09-06T12:52:46;26.90;99.30
19654;DHT22;9975;48.046;7.804;2022-09-06T12:55:38;27.00;98.50
19654;DHT22;9975;48.046;7.804;2022-09-06T12:58:09;27.30;97.40
19654;DHT22;9975;48.046;7.804;2022-09-06T13:03:48;27.40;96.50
19654;DHT22;9975;48.046;7.804;2022-09-06T13:06:20;27.40;96.10
19654;DHT22;9975;48.046;7.804;2022-09-06T13:08:50;27.30;95.50
19654;DHT22;9975;48.046;7.804;2022-09-06T13:11:23;27.40;95.40
19654;DHT22;9975;48.046;7.804;2022-09-06T13:13:53;27.30;95.30
19654;DHT22;9975;48.046;7.804;2022-09-06T13:16:25;27.40;94.70
19654;DHT22;9975;48.046;7.804;2022-09-06T13:18:51;27.50;95.60
19654;DHT22;9975;48.046;7.804;2022-09-06T13:21:31;27.60;96.00
19654;DHT22;9975;48.046;7.804;2022-09-06T13:24:00;27.80;95.30
19654;DHT22;9975;48.046;7.804;2022-09-06T13:26:34;27.90;93.50
19654;DHT22;9975;48.046;7.804;2022-09-06T13:31:46;27.80;93.00
19654;DHT22;9975;48.046;7.804;2022-09-06T13:34:26;27.90;93.00
19654;DHT22;9975;48.046;7.804;2022-09-06T13:36:54;28.10;92.70
19654;DHT22;9975;48.046;7.804;2022-09-06T13:39:34;28.00;92.30
19654;DHT22;9975;48.046;7.804;2022-09-06T13:42:06;27.90;91.30
19654;DHT22;9975;48.046;7.804;2022-09-06T13:44:37;27.80;92.00
19654;DHT22;9975;48.046;7.804;2022-09-06T13:47:04;27.90;92.30
19654;DHT22;9975;48.046;7.804;2022-09-06T13:49:30;28.10;91.70
19654;DHT22;9975;48.046;7.804;2022-09-06T13:52:00;28.40;91.50
19654;DHT22;9975;48.046;7.804;2022-09-06T13:54:26;28.80;91.40
19654;DHT22;9975;48.046;7.804;2022-09-06T13:56:52;29.00;89.50
19654;DHT22;9975;48.046;7.804;2022-09-06T13:59:18;29.30;88.80
19654;DHT22;9975;48.046;7.804;2022-09-06T14:01:46;29.60;86.00
19654;DHT22;9975;48.046;7.804;2022-09-06T14:04:16;29.60;82.30
19654;DHT22;9975;48.046;7.804;2022-09-06T14:06:44;29.50;81.90
19654;DHT22;9975;48.046;7.804;2022-09-06T14:09:11;29.50;80.10
19654;DHT22;9975;48.046;7.804;2022-09-06T14:11:36;29.60;79.50
19654;DHT22;9975;48.046;7.804;2022-09-06T14:14:02;29.40;76.50
19654;DHT22;9975;48.046;7.804;2022-09-06T14:16:28;29.10;77.20
19654;DHT22;9975;48.046;7.804;2022-09-06T14:18:54;29.10;75.70
19654;DHT22;9975;48.046;7.804;2022-09-06T14:21:20;28.80;75.40
19654;DHT22;9975;48.046;7.804;2022-09-06T14:23:49;28.80;77.30
19654;DHT22;9975;48.046;7.804;2022-09-06T14:26:16;28.50;78.10
19654;DHT22;9975;48.046;7.804;2022-09-06T14:28:43;28.40;79.80
19654;DHT22;9975;48.046;7.804;2022-09-06T14:31:12;28.30;80.30
19654;DHT22;9975;48.046;7.804;2022-09-06T14:33:43;28.30;80.80
19654;DHT22;9975;48.046;7.804;2022-09-06T14:36:12;28.10;81.70
19654;DHT22;9975;48.046;7.804;2022-09-06T14:38:39;28.20;81.90
19654;DHT22;9975;48.046;7.804;2022-09-06T14:41:06;28.30;81.00
19654;DHT22;9975;48.046;7.804;2022-09-06T14:43:33;28.70;80.10
19654;DHT22;9975;48.046;7.804;2022-09-06T14:46:06;28.90;77.40
19654;DHT22;9975;48.046;7.804;2022-09-06T14:48:33;28.60;78.20
19654;DHT22;9975;48.046;7.804;2022-09-06T14:51:07;28.70;76.00
19654;DHT22;9975;48.046;7.804;2022-09-06T14:53:33;28.90;72.40
19654;DHT22;9975;48.046;7.804;2022-09-06T14:56:03;28.90;71.20
19654;DHT22;9975;48.046;7.804;2022-09-06T14:58:33;28.70;69.60
19654;DHT22;9975;48.046;7.804;2022-09-06T15:01:14;28.50;70.80
19654;DHT22;9975;48.046;7.804;2022-09-06T15:03:54;28.60;71.10
19654;DHT22;9975;48.046;7.804;2022-09-06T15:06:21;28.60;69.40
19654;DHT22;9975;48.046;7.804;2022-09-06T15:08:47;28.60;69.60
19654;DHT22;9975;48.046;7.804;2022-09-06T15:11:20;28.50;71.40
19654;DHT22;9975;48.046;7.804;2022-09-06T15:13:51;28.60;70.80
19654;DHT22;9975;48.046;7.804;2022-09-06T15:16:17;28.50;69.70
19654;DHT22;9975;48.046;7.804;2022-09-06T15:18:42;28.30;71.40
19654;DHT22;9975;48.046;7.804;2022-09-06T15:21:13;28.30;72.70
19654;DHT22;9975;48.046;7.804;2022-09-06T15:23:40;28.30;73.50
19654;DHT22;9975;48.046;7.804;2022-09-06T15:26:08;28.00;73.30
19654;DHT22;9975;48.046;7.804;2022-09-06T15:28:35;28.10;73.70
19654;DHT22;9975;48.046;7.804;2022-09-06T15:31:01;28.20;74.00
19654;DHT22;9975;48.046;7.804;2022-09-06T15:33:31;28.20;74.00
19654;DHT22;9975;48.046;7.804;2022-09-06T15:35:58;27.80;75.00
19654;DHT22;9975;48.046;7.804;2022-09-06T15:38:25;27.80;75.70
19654;DHT22;9975;48.046;7.804;2022-09-06T15:40:50;27.80;76.80
19654;DHT22;9975;48.046;7.804;2022-09-06T15:43:16;28.00;76.70
19654;DHT22;9975;48.046;7.804;2022-09-06T15:45:51;28.00;76.60
19654;DHT22;9975;48.046;7.804;2022-09-06T15:48:17;27.70;77.00
19654;DHT22;9975;48.046;7.804;2022-09-06T15:50:43;27.80;79.20
19654;DHT22;9975;48.046;7.804;2022-09-06T15:53:10;28.00;79.20
19654;DHT22;9975;48.046;7.804;2022-09-06T15:55:35;28.20;78.80
19654;DHT22;9975;48.046;7.804;2022-09-06T15:58:19;28.40;78.20
19654;DHT22;9975;48.046;7.804;2022-09-06T16:00:45;28.70;76.10
19654;DHT22;9975;48.046;7.804;2022-09-06T16:03:11;28.80;77.00
19654;DHT22;9975;48.046;7.804;2022-09-06T16:05:37;28.60;75.90
19654;DHT22;9975;48.046;7.804;2022-09-06T16:08:02;28.50;74.70
19654;DHT22;9975;48.046;7.804;2022-09-06T16:10:28;28.20;74.80
19654;DHT22;9975;48.046;7.804;2022-09-06T16:12:54;27.90;74.90
19654;DHT22;9975;48.046;7.804;2022-09-06T16:15:20;27.70;75.80
19654;DHT22;9975;48.046;7.804;2022-09-06T16:17:46;27.60;77.20
19654;DHT22;9975;48.046;7.804;2022-09-06T16:20:13;27.50;78.10
19654;DHT22;9975;48.046;7.804;2022-09-06T16:22:39;27.40;78.30
19654;DHT22;9975;48.046;7.804;2022-09-06T16:25:05;27.30;78.10
19654;DHT22;9975;48.046;7.804;2022-09-06T16:27:30;27.30;77.80
19654;DHT22;9975;48.046;7.804;2022-09-06T16:29:56;27.20;76.80
19654;DHT22;9975;48.046;7.804;2022-09-06T16:32:23;26.70;74.00
19654;DHT22;9975;48.046;7.804;2022-09-06T16:34:48;26.50;72.70
19654;DHT22;9975;48.046;7.804;2022-09-06T16:37:14;26.20;74.10
19654;DHT22;9975;48.046;7.804;2022-09-06T16:39:40;26.20;74.20
19654;DHT22;9975;48.046;7.804;2022-09-06T16:42:05;26.00;71.00
19654;DHT22;9975;48.046;7.804;2022-09-06T16:44:31;26.00;70.30
19654;DHT22;9975;48.046;7.804;2022-09-06T16:46:57;25.70;71.30
19654;DHT22;9975;48.046;7.804;2022-09-06T16:49:25;25.60;71.80
19654;DHT22;9975;48.046;7.804;2022-09-06T16:51:51;25.40;71.90
19654;DHT22;9975;48.046;7.804;2022-09-06T16:54:17;25.40;72.40
19654;DHT22;9975;48.046;7.804;2022-09-06T16:56:44;25.40;71.70
19654;DHT22;9975;48.046;7.804;2022-09-06T16:59:10;25.40;71.30
19654;DHT22;9975;48.046;7.804;2022-09-06T17:01:37;25.30;71.40
19654;DHT22;9975;48.046;7.804;2022-09-06T17:04:05;25.30;71.30
19654;DHT22;9975;48.046;7.804;2022-09-06T17:06:32;25.20;70.80
19654;DHT22;9975;48.046;7.804;2022-09-06T17:09:00;25.20;70.90
19654;DHT22;9975;48.046;7.804;2022-09-06T17:11:26;25.10;71.90
19654;DHT22;9975;48.046;7.804;2022-09-06T17:13:53;25.00;72.10
19654;DHT22;9975;48.046;7.804;2022-09-06T17:16:20;25.00;72.50
19654;DHT22;9975;48.046;7.804;2022-09-06T17:19:05;24.90;72.90
19654;DHT22;9975;48.046;7.804;2022-09-06T17:21:32;24.80;73.50
19654;DHT22;9975;48.046;7.804;2022-09-06T17:24:00;24.80;74.10
19654;DHT22;9975;48.046;7.804;2022-09-06T17:26:29;24.90;73.80
19654;DHT22;9975;48.046;7.804;2022-09-06T17:28:55;24.90;74.40
19654;DHT22;9975;48.046;7.804;2022-09-06T17:31:22;24.90;74.40
19654;DHT22;9975;48.046;7.804;2022-09-06T17:33:48;24.70;75.20
19654;DHT22;9975;48.046;7.804;2022-09-06T17:36:17;24.70;74.90
19654;DHT22;9975;48.046;7.804;2022-09-06T17:38:44;24.60;75.10
19654;DHT22;9975;48.046;7.804;2022-09-06T17:41:23;24.40;75.90
19654;DHT22;9975;48.046;7.804;2022-09-06T17:43:50;24.30;76.50
19654;DHT22;9975;48.046;7.804;2022-09-06T17:46:18;24.20;76.60
19654;DHT22;9975;48.046;7.804;2022-09-06T17:48:44;24.10;77.80
19654;DHT22;9975;48.046;7.804;2022-09-06T17:51:10;24.10;77.10
19654;DHT22;9975;48.046;7.804;2022-09-06T17:53:37;24.00;78.80
19654;DHT22;9975;48.046;7.804;2022-09-06T17:56:08;23.90;78.80
19654;DHT22;9975;48.046;7.804;2022-09-06T17:58:34;23.80;79.70
19654;DHT22;9975;48.046;7.804;2022-09-06T18:01:09;23.80;80.90
19654;DHT22;9975;48.046;7.804;2022-09-06T18:03:38;23.90;81.30
19654;DHT22;9975;48.046;7.804;2022-09-06T18:06:10;23.80;81.00
19654;DHT22;9975;48.046;7.804;2022-09-06T18:08:38;23.70;81.80
19654;DHT22;9975;48.046;7.804;2022-09-06T18:11:15;23.60;81.90
19654;DHT22;9975;48.046;7.804;2022-09-06T18:13:42;23.70;84.10
19654;DHT22;9975;48.046;7.804;2022-09-06T18:16:09;23.70;84.30
19654;DHT22;9975;48.046;7.804;2022-09-06T18:18:35;23.60;83.40
19654;DHT22;9975;48.046;7.804;2022-09-06T18:21:02;23.30;84.70
19654;DHT22;9975;48.046;7.804;2022-09-06T18:23:29;22.90;86.00
19654;DHT22;9975;48.046;7.804;2022-09-06T18:28:24;22.80;86.90
19654;DHT22;9975;48.046;7.804;2022-09-06T18:30:51;22.70;87.00
19654;DHT22;9975;48.046;7.804;2022-09-06T18:33:21;22.80;87.40
19654;DHT22;9975;48.046;7.804;2022-09-06T18:35:48;22.70;88.20
19654;DHT22;9975;48.046;7.804;2022-09-06T18:38:14;22.60;90.00
19654;DHT22;9975;48.046;7.804;2022-09-06T18:40:58;22.60;90.50
19654;DHT22;9975;48.046;7.804;2022-09-06T18:43:30;22.60;90.70
19654;DHT22;9975;48.046;7.804;2022-09-06T18:46:07;22.60;91.50
19654;DHT22;9975;48.046;7.804;2022-09-06T18:48:34;22.70;91.90
19654;DHT22;9975;48.046;7.804;2022-09-06T18:51:13;22.50;91.20
19654;DHT22;9975;48.046;7.804;2022-09-06T18:53:41;22.50;92.20
19654;DHT22;9975;48.046;7.804;2022-09-06T18:56:11;22.40;92.50
19654;DHT22;9975;48.046;7.804;2022-09-06T18:58:37;22.40;92.90
19654;DHT22;9975;48.046;7.804;2022-09-06T19:01:05;22.30;92.70
19654;DHT22;9975;48.046;7.804;2022-09-06T19:03:31;22.20;92.80
19654;DHT22;9975;48.046;7.804;2022-09-06T19:06:05;22.20;93.50
19654;DHT22;9975;48.046;7.804;2022-09-06T19:08:31;22.10;93.80
19654;DHT22;9975;48.046;7.804;2022-09-06T19:11:05;21.90;94.40
19654;DHT22;9975;48.046;7.804;2022-09-06T19:13:34;21.90;94.50
19654;DHT22;9975;48.046;7.804;2022-09-06T19:16:01;21.90;94.70
19654;DHT22;9975;48.046;7.804;2022-09-06T19:18:27;21.80;94.90
19654;DHT22;9975;48.046;7.804;2022-09-06T19:21:01;21.70;95.90
19654;DHT22;9975;48.046;7.804;2022-09-06T19:23:28;21.70;96.40
19654;DHT22;9975;48.046;7.804;2022-09-06T19:26:15;21.70;97.00
19654;DHT22;9975;48.046;7.804;2022-09-06T19:29:10;21.70;97.60
19654;DHT22;9975;48.046;7.804;2022-09-06T19:31:34;21.60;98.00
19654;DHT22;9975;48.046;7.804;2022-09-06T19:34:01;21.50;99.00
19654;DHT22;9975;48.046;7.804;2022-09-06T19:36:27;21.50;99.90
19654;DHT22;9975;48.046;7.804;2022-09-06T19:38:55;21.50;99.90
19654;DHT22;9975;48.046;7.804;2022-09-06T19:41:21;21.50;99.90
19654;DHT22;9975;48.046;7.804;2022-09-06T19:43:52;21.40;99.90
19654;DHT22;9975;48.046;7.804;2022-09-06T19:46:18;21.20;99.90
19654;DHT22;9975;48.046;7.804;2022-09-06T19:48:46;21.10;99.90
19654;DHT22;9975;48.046;7.804;2022-09-06T19:51:12;20.90;99.90
19654;DHT22;9975;48.046;7.804;2022-09-06T19:53:42;20.80;99.90
19654;DHT22;9975;48.046;7.804;2022-09-06T19:56:09;20.70;99.90
19654;DHT22;9975;48.046;7.804;2022-09-06T19:58:35;20.60;99.90
19654;DHT22;9975;48.046;7.804;2022-09-06T20:01:01;20.60;99.90
19654;DHT22;9975;48.046;7.804;2022-09-06T20:05:57;20.50;99.90
19654;DHT22;9975;48.046;7.804;2022-09-06T20:08:23;20.50;99.90
19654;DHT22;9975;48.046;7.804;2022-09-06T20:10:54;20.40;99.90
19654;DHT22;9975;48.046;7.804;2022-09-06T20:13:20;20.40;99.90
19654;DHT22;9975;48.046;7.804;2022-09-06T20:15:46;20.40;99.90
19654;DHT22;9975;48.046;7.804;2022-09-06T20:18:12;20.40;99.90
19654;DHT22;9975;48.046;7.804;2022-09-06T20:20:37;20.40;99.90
19654;DHT22;9975;48.046;7.804;2022-09-06T20:23:03;20.40;99.90
19654;DHT22;9975;48.046;7.804;2022-09-06T20:25:29;20.40;99.90
19654;DHT22;9975;48.046;7.804;2022-09-06T20:27:55;20.30;99.90
19654;DHT22;9975;48.046;7.804;2022-09-06T20:30:20;20.30;99.90
19654;DHT22;9975;48.046;7.804;2022-09-06T20:32:46;20.20;99.90
19654;DHT22;9975;48.046;7.804;2022-09-06T20:35:11;20.30;99.90
19654;DHT22;9975;48.046;7.804;2022-09-06T20:37:37;20.30;99.90
19654;DHT22;9975;48.046;7.804;2022-09-06T20:40:05;20.20;99.90
19654;DHT22;9975;48.046;7.804;2022-09-06T20:42:31;20.20;99.90
19654;DHT22;9975;48.046;7.804;2022-09-06T20:44:56;20.20;99.90
19654;DHT22;9975;48.046;7.804;2022-09-06T20:47:22;20.20;99.90
19654;DHT22;9975;48.046;7.804;2022-09-06T20:49:47;20.00;99.90
19654;DHT22;9975;48.046;7.804;2022-09-06T20:52:13;19.90;99.90
19654;DHT22;9975;48.046;7.804;2022-09-06T20:54:39;20.00;99.90
19654;DHT22;9975;48.046;7.804;2022-09-06T20:57:05;20.00;99.90
19654;DHT22;9975;48.046;7.804;2022-09-06T20:59:31;19.90;99.90
19654;DHT22;9975;48.046;7.804;2022-09-06T21:01:57;19.90;99.90
19654;DHT22;9975;48.046;7.804;2022-09-06T21:04:23;19.90;99.90
19654;DHT22;9975;48.046;7.804;2022-09-06T21:06:51;19.90;99.90
19654;DHT22;9975;48.046;7.804;2022-09-06T21:09:17;19.80;99.90
19654;DHT22;9975;48.046;7.804;2022-09-06T21:11:43;19.80;99.90
19654;DHT22;9975;48.046;7.804;2022-09-06T21:14:10;19.80;99.90
19654;DHT22;9975;48.046;7.804;2022-09-06T21:16:36;19.60;99.90
19654;DHT22;9975;48.046;7.804;2022-09-06T21:19:06;19.50;99.90
19654;DHT22;9975;48.046;7.804;2022-09-06T21:21:32;19.40;99.90
